createdAt,value
2023-05-17T00:01:47.136Z,99.99
2023-05-17T00:11:46.367Z,99.99
2023-05-17T00:21:46.548Z,99.99
2023-05-17T00:31:46.753Z,99.99
2023-05-17T00:41:47.068Z,99.99
2023-05-17T00:51:47.023Z,99.52
2023-05-17T01:01:47.215Z,98.85
2023-05-17T01:11:47.455Z,98.70
2023-05-17T01:21:47.735Z,98.96
2023-05-17T01:31:47.978Z,98.96
2023-05-17T01:41:48.170Z,98.75
2023-05-17T01:51:48.422Z,98.03
2023-05-17T02:01:48.710Z,97.87
2023-05-17T02:11:48.769Z,97.87
2023-05-17T02:21:49.033Z,98.38
2023-05-17T02:31:49.213Z,98.75
2023-05-17T02:41:49.402Z,99.05
2023-05-17T02:51:49.602Z,99.26
2023-05-17T03:01:49.809Z,98.90
2023-05-17T03:11:50.058Z,97.45
2023-05-17T03:21:50.268Z,97.45
2023-05-17T03:31:50.480Z,97.56
2023-05-17T03:41:50.655Z,97.66
2023-05-17T03:51:50.797Z,97.81
2023-05-17T04:01:50.967Z,98.12
2023-05-17T04:11:51.144Z,97.81
2023-05-17T04:21:51.303Z,96.89
2023-05-17T04:31:51.432Z,96.99
2023-05-17T04:41:51.591Z,96.84
2023-05-17T04:51:51.778Z,96.64
2023-05-17T05:01:51.947Z,97.05
2023-05-17T05:11:52.105Z,97.05
2023-05-17T05:21:52.269Z,97.72
2023-05-17T05:31:52.432Z,97.31
2023-05-17T05:41:52.621Z,97.00
2023-05-17T05:51:52.751Z,96.69
2023-05-17T06:01:52.929Z,95.62
2023-05-17T06:11:53.086Z,94.39
2023-05-17T06:21:53.406Z,93.32
2023-05-17T06:31:53.358Z,91.27
2023-05-17T06:41:53.529Z,89.99
2023-05-17T06:51:53.673Z,87.49
2023-05-17T07:01:53.847Z,86.18
2023-05-17T07:11:54.034Z,82.28
2023-05-17T07:21:54.206Z,80.60
2023-05-17T07:31:54.365Z,82.92
2023-05-17T07:41:54.552Z,80.22
2023-05-17T07:51:54.730Z,78.89
2023-05-17T08:01:54.900Z,79.68
2023-05-17T08:11:55.072Z,78.34
2023-05-17T08:21:55.220Z,75.79
2023-05-17T08:31:55.394Z,78.45
2023-05-17T08:41:55.540Z,76.67
2023-05-17T08:51:55.682Z,74.49
2023-05-17T09:01:55.861Z,74.01
2023-05-17T09:11:56.039Z,73.67
2023-05-17T09:21:56.202Z,72.89
2023-05-17T09:31:56.332Z,69.76
2023-05-17T09:41:56.495Z,67.55
2023-05-17T09:51:56.649Z,66.68
2023-05-17T10:01:56.809Z,69.09
2023-05-17T10:11:56.949Z,64.92
2023-05-17T10:21:58.651Z,61.04
2023-05-17T10:31:58.347Z,61.71
2023-05-17T10:42:12.947Z,61.14
2023-05-17T10:51:58.729Z,61.55
2023-05-17T11:01:57.910Z,61.47
2023-05-17T11:11:58.067Z,60.05
2023-05-17T11:21:58.231Z,61.17
2023-05-17T11:31:58.397Z,59.48
2023-05-17T11:41:58.581Z,57.15
2023-05-17T11:51:58.735Z,57.76
2023-05-17T12:01:58.907Z,59.16
2023-05-17T12:11:59.077Z,56.49
2023-05-17T12:21:59.263Z,58.70
2023-05-17T12:31:59.409Z,59.06
2023-05-17T12:41:59.632Z,64.45
2023-05-17T12:51:59.806Z,63.23
2023-05-17T13:01:59.980Z,61.21
2023-05-17T13:12:00.154Z,59.26
2023-05-17T13:22:00.305Z,61.95
2023-05-17T13:32:00.473Z,59.03
2023-05-17T13:42:00.649Z,59.34
2023-05-17T13:52:00.917Z,59.62
2023-05-17T14:02:00.869Z,59.01
2023-05-17T14:12:01.444Z,59.77
2023-05-17T14:22:01.179Z,59.66
2023-05-17T14:32:01.354Z,58.85
2023-05-17T14:42:01.513Z,57.65
2023-05-17T14:52:01.679Z,56.97
2023-05-17T15:02:01.921Z,59.00
2023-05-17T15:12:02.112Z,53.32
2023-05-17T15:22:02.095Z,55.70
2023-05-17T15:32:02.258Z,56.16
2023-05-17T15:42:02.441Z,52.59
2023-05-17T15:52:02.662Z,55.32
2023-05-17T16:02:02.886Z,60.24
2023-05-17T16:12:03.148Z,55.88
2023-05-17T16:22:03.404Z,61.49
2023-05-17T16:32:03.639Z,58.37
2023-05-17T16:42:03.706Z,60.36
2023-05-17T16:52:04.059Z,61.91
2023-05-17T17:02:04.339Z,63.33
2023-05-17T17:12:16.285Z,64.58
2023-05-17T17:22:05.615Z,64.03
2023-05-17T17:32:04.936Z,64.34
2023-05-17T17:42:04.918Z,62.33
2023-05-17T17:52:05.030Z,67.43
2023-05-17T18:02:05.173Z,67.32
2023-05-17T18:12:05.308Z,69.06
2023-05-17T18:22:05.438Z,68.91
2023-05-17T18:32:05.623Z,71.15
2023-05-17T18:42:05.712Z,69.08
2023-05-17T18:52:05.850Z,71.73
2023-05-17T19:02:05.951Z,70.64
2023-05-17T19:12:06.099Z,71.87
2023-05-17T19:22:06.181Z,69.24
2023-05-17T19:32:06.514Z,69.56
2023-05-17T19:42:06.587Z,70.37
2023-05-17T19:52:06.678Z,71.19
2023-05-17T20:02:06.914Z,70.81
2023-05-17T20:12:06.992Z,70.61
2023-05-17T20:22:07.138Z,69.79
2023-05-17T20:32:07.423Z,70.61
2023-05-17T20:42:07.357Z,70.61
2023-05-17T20:52:07.650Z,68.91
2023-05-17T21:02:07.354Z,74.02
2023-05-17T21:12:07.650Z,74.52
2023-05-17T21:22:07.857Z,76.09
2023-05-17T21:32:08.088Z,76.81
2023-05-17T21:42:08.332Z,77.12
2023-05-17T21:52:08.515Z,76.64
2023-05-17T22:02:08.780Z,76.75
2023-05-17T22:12:08.855Z,76.27
2023-05-17T22:22:09.037Z,76.37
2023-05-17T22:32:09.293Z,76.06
2023-05-17T22:42:09.525Z,77.23
2023-05-17T22:52:09.741Z,77.73
2023-05-17T23:02:09.954Z,77.02
2023-05-17T23:12:10.140Z,77.50
2023-05-17T23:22:10.358Z,78.90
2023-05-17T23:32:10.549Z,79.45
2023-05-17T23:42:10.752Z,80.68
2023-05-17T23:52:11.021Z,82.15
